Weather at Stronsay Airport

Public forecast

Using degrees Celsius for public forecast. Weather courtesy of forecast.io.

Closest aviation weather report (METAR) to Stronsay Airport

Closest report is Kirkwall Airport, 14.4 nm (26.6 km) SW. Retrieved 2020/12/05 16:20 UTC (24 minutes ago):

EGPA 051620Z 07010KT 9999 VCSH FEW022 SCT035 05/03 Q1004

Closest aviation forecast (TAF) to Stronsay Airport

Forecast is more than 12 hours old.

Closest forecast is Scatsta Airport, 86.8 nm (160.7 km) NNE. Retrieved 2013/04/29 03:39 UTC (8 years ago):

TAF TAF EGPM 290337Z 2903/2915 22005KT 9999 SCT030 PROB30 TEMPO 2903/2906 7000 SHRAGS BECMG 2906/2909 32015KT PROB40 TEMPO 2906/2915 6000 SHRA SHGS BKN012CB